Time;durP1;ratioP1;P1;durP2;ratioP2;P2;SDS_P1;SDS_P2;PMS_P1;PMS_P2;Temp;Humidity;BMP_temperature;BMP_pressure;BME280_temperature;BME280_humidity;BME280_pressure;Samples;Min_cycle;Max_cycle;Signal;HPM_P1;HPM_P2
2023/03/07 00:00:42;;;;;;;2.50;2.10;;;11.20;44.50;;;;;;5087274;28;47007;-65
2023/03/07 00:03:10;;;;;;;3.03;2.40;;;11.20;44.40;;;;;;5087329;28;46024;-65
2023/03/07 00:05:37;;;;;;;3.67;2.53;;;11.20;44.50;;;;;;5087636;28;45425;-65
2023/03/07 00:08:04;;;;;;;3.23;2.50;;;11.20;44.50;;;;;;5087854;28;45360;-65
2023/03/07 00:10:31;;;;;;;2.80;2.20;;;11.20;44.50;;;;;;5087329;28;45356;-65
2023/03/07 00:12:58;;;;;;;2.73;2.10;;;11.20;44.50;;;;;;5087219;28;45305;-65
2023/03/07 00:15:25;;;;;;;3.17;2.20;;;11.20;44.50;;;;;;5087080;28;45288;-65
2023/03/07 00:17:53;;;;;;;4.67;2.30;;;11.20;44.50;;;;;;5087528;28;45483;-65
2023/03/07 00:20:20;;;;;;;2.73;2.03;;;11.20;44.50;;;;;;5087428;28;47025;-65
2023/03/07 00:22:47;;;;;;;2.73;2.23;;;11.20;44.50;;;;;;5087201;28;45468;-65
2023/03/07 00:25:14;;;;;;;4.10;2.33;;;11.20;44.50;;;;;;5084597;28;45338;-65
2023/03/07 00:27:41;;;;;;;3.00;2.30;;;11.20;44.50;;;;;;5087481;28;45301;-65
2023/03/07 00:30:11;;;;;;;4.07;2.33;;;11.20;44.60;;;;;;5086854;28;47787;-65
2023/03/07 00:32:38;;;;;;;4.03;2.30;;;11.10;44.60;;;;;;5085996;28;45349;-66
2023/03/07 00:35:07;;;;;;;3.53;2.20;;;11.10;44.60;;;;;;5087166;28;45351;-65
2023/03/07 00:37:33;;;;;;;2.40;2.17;;;11.10;44.60;;;;;;5087280;28;45518;-65
2023/03/07 00:40:00;;;;;;;3.43;2.23;;;11.10;44.60;;;;;;5086631;28;45354;-65
2023/03/07 00:42:27;;;;;;;3.07;2.17;;;11.10;44.60;;;;;;5086712;28;45510;-65
2023/03/07 00:44:54;;;;;;;4.40;2.30;;;11.10;44.60;;;;;;5087012;28;45330;-65
2023/03/07 00:47:21;;;;;;;2.47;2.27;;;11.10;44.70;;;;;;5086947;28;45553;-65
2023/03/07 00:49:48;;;;;;;3.17;2.30;;;11.10;44.70;;;;;;5086672;28;46696;-65
2023/03/07 00:52:16;;;;;;;4.77;2.30;;;11.10;44.70;;;;;;5086636;28;45297;-65
2023/03/07 00:54:43;;;;;;;2.77;2.03;;;11.10;44.70;;;;;;5086855;28;45313;-65
2023/03/07 00:57:10;;;;;;;3.03;2.10;;;11.10;44.70;;;;;;5086814;28;45315;-65
2023/03/07 00:59:37;;;;;;;3.27;2.23;;;11.10;44.70;;;;;;5086428;28;45393;-65
2023/03/07 01:02:04;;;;;;;3.67;2.17;;;11.10;44.70;;;;;;5086478;28;45403;-66
2023/03/07 01:04:31;;;;;;;3.70;2.00;;;11.10;44.70;;;;;;5086401;28;45401;-66
2023/03/07 01:06:58;;;;;;;3.70;1.87;;;11.10;44.70;;;;;;5086829;28;45368;-66
2023/03/07 01:09:26;;;;;;;3.50;2.23;;;11.10;44.70;;;;;;5086630;28;46159;-66
2023/03/07 01:11:53;;;;;;;3.03;2.23;;;11.10;44.70;;;;;;5086305;28;45264;-65
2023/03/07 01:14:20;;;;;;;4.37;2.37;;;11.10;44.70;;;;;;5086458;28;45292;-66
2023/03/07 01:16:46;;;;;;;3.10;2.07;;;11.00;44.70;;;;;;5086285;28;45481;-66
2023/03/07 01:19:13;;;;;;;4.03;2.20;;;11.00;44.70;;;;;;5086477;28;47631;-67
2023/03/07 01:21:41;;;;;;;3.53;2.00;;;11.00;44.70;;;;;;5086063;28;46116;-66
2023/03/07 01:24:11;;;;;;;2.97;2.20;;;11.00;44.70;;;;;;5086331;28;45417;-66
2023/03/07 01:26:39;;;;;;;4.03;2.30;;;11.00;44.70;;;;;;5086626;28;45383;-66
2023/03/07 01:29:06;;;;;;;5.23;2.23;;;11.00;44.70;;;;;;5086016;28;46711;-66
2023/03/07 01:31:33;;;;;;;2.73;2.00;;;11.00;44.70;;;;;;5085974;28;45457;-66
2023/03/07 01:34:01;;;;;;;3.43;2.13;;;11.00;44.70;;;;;;5086197;28;45506;-66
2023/03/07 01:36:29;;;;;;;3.20;2.23;;;11.00;44.70;;;;;;5086542;28;45318;-66
2023/03/07 01:38:56;;;;;;;2.47;2.00;;;11.00;44.70;;;;;;5085832;28;46672;-66
2023/03/07 01:41:24;;;;;;;2.30;2.03;;;11.00;44.70;;;;;;5085895;28;45334;-66
2023/03/07 01:43:52;;;;;;;2.97;1.90;;;11.00;44.70;;;;;;5085660;28;45462;-66
2023/03/07 01:46:44;;;;;;;2.47;1.77;;;11.00;44.70;;;;;;5086111;28;45231;-66
2023/03/07 01:49:22;;;;;;;2.63;1.87;;;11.00;44.70;;;;;;5085869;28;45439;-66
2023/03/07 01:51:51;;;;;;;4.43;2.07;;;10.90;44.60;;;;;;5085786;28;45253;-66
2023/03/07 01:54:18;;;;;;;2.37;1.80;;;11.00;44.70;;;;;;5085885;28;45282;-66
2023/03/07 01:56:45;;;;;;;2.93;2.10;;;10.90;44.70;;;;;;5086005;28;45370;-66
2023/03/07 01:59:14;;;;;;;3.10;2.17;;;10.90;44.60;;;;;;5084904;28;46361;-66
2023/03/07 02:01:41;;;;;;;2.27;1.90;;;10.90;44.70;;;;;;5085611;28;45284;-66
2023/03/07 02:04:11;;;;;;;2.50;2.00;;;10.90;45.30;;;;;;5085703;28;45245;-66
2023/03/07 02:06:38;;;;;;;2.47;1.77;;;10.90;44.70;;;;;;5085745;28;45364;-66
2023/03/07 02:09:06;;;;;;;2.03;1.80;;;10.90;44.60;;;;;;5085520;28;45314;-66
2023/03/07 02:11:33;;;;;;;4.30;2.20;;;10.90;44.70;;;;;;5085485;28;45312;-66
2023/03/07 02:14:00;;;;;;;3.40;1.97;;;10.90;44.60;;;;;;5085651;28;45475;-66
2023/03/07 02:16:29;;;;;;;2.33;1.87;;;10.90;44.70;;;;;;5085540;28;45337;-66
2023/03/07 02:18:55;;;;;;;3.70;2.10;;;10.90;45.30;;;;;;5085311;28;46211;-66
2023/03/07 02:21:29;;;;;;;3.20;1.70;;;10.90;44.70;;;;;;5085316;28;45325;-66
2023/03/07 02:23:57;;;;;;;2.57;1.87;;;10.90;44.60;;;;;;5085464;28;45273;-66
2023/03/07 02:26:30;;;;;;;2.00;1.90;;;10.90;44.70;;;;;;5085598;28;45399;-66
2023/03/07 02:28:58;;;;;;;2.60;1.87;;;10.90;44.60;;;;;;5085192;28;46375;-66
2023/03/07 02:31:25;;;;;;;3.27;2.07;;;10.90;44.70;;;;;;5085191;28;45368;-66
2023/03/07 02:33:52;;;;;;;2.20;1.90;;;10.90;44.70;;;;;;5085381;28;45600;-66
2023/03/07 02:36:21;;;;;;;2.80;1.90;;;10.90;44.70;;;;;;5085490;28;45347;-66
2023/03/07 02:38:48;;;;;;;2.33;1.73;;;10.90;44.70;;;;;;5085197;28;47308;-65
2023/03/07 02:41:15;;;;;;;1.87;1.70;;;10.90;44.70;;;;;;5085148;28;45384;-66
2023/03/07 02:43:42;;;;;;;3.00;2.00;;;10.90;44.70;;;;;;5085209;28;45364;-66
2023/03/07 02:46:10;;;;;;;2.40;1.83;;;10.90;44.70;;;;;;5085535;28;45456;-65
2023/03/07 02:48:37;;;;;;;2.70;2.20;;;10.90;44.70;;;;;;5085009;28;46772;-67
2023/03/07 02:51:04;;;;;;;2.10;1.80;;;10.90;44.70;;;;;;5084935;28;45493;-65
2023/03/07 02:53:31;;;;;;;2.30;1.77;;;10.80;44.70;;;;;;5085154;27;45561;-66
2023/03/07 02:55:58;;;;;;;2.70;2.10;;;10.80;44.70;;;;;;5088381;28;45294;-66
2023/03/07 02:58:25;;;;;;;2.47;1.70;;;10.80;44.70;;;;;;5088447;28;46334;-65
2023/03/07 03:00:52;;;;;;;2.43;1.77;;;10.80;44.70;;;;;;5088514;28;45329;-66
2023/03/07 03:03:20;;;;;;;2.17;1.90;;;10.80;44.70;;;;;;5088691;28;45309;-66
2023/03/07 03:05:47;;;;;;;2.00;1.80;;;10.80;44.70;;;;;;5088615;28;45390;-66
2023/03/07 03:08:14;;;;;;;2.73;1.57;;;10.80;44.70;;;;;;5088357;28;46338;-66
2023/03/07 03:10:41;;;;;;;2.53;1.97;;;10.80;44.60;;;;;;5088409;28;45317;-66
2023/03/07 03:13:08;;;;;;;2.57;1.97;;;10.80;44.70;;;;;;5088397;28;45298;-66
2023/03/07 03:15:35;;;;;;;2.87;1.60;;;10.80;44.70;;;;;;5088206;28;45485;-66
2023/03/07 03:18:02;;;;;;;3.07;1.87;;;10.80;44.70;;;;;;5088011;28;46384;-66
2023/03/07 03:20:30;;;;;;;2.20;1.63;;;10.80;44.70;;;;;;5088289;28;45312;-66
2023/03/07 03:22:57;;;;;;;2.20;1.70;;;10.80;44.70;;;;;;5088256;28;45260;-66
2023/03/07 03:25:25;;;;;;;3.57;1.97;;;10.80;44.70;;;;;;5088535;28;45376;-66
2023/03/07 03:27:52;;;;;;;3.33;1.80;;;10.80;44.70;;;;;;5088149;28;46529;-66
2023/03/07 03:30:19;;;;;;;2.07;1.50;;;10.80;44.70;;;;;;5088013;28;45213;-66
2023/03/07 03:32:46;;;;;;;2.00;1.77;;;10.80;44.70;;;;;;5088158;28;45411;-66
2023/03/07 03:35:13;;;;;;;2.67;2.10;;;10.80;44.70;;;;;;5088335;28;45250;-66
2023/03/07 03:37:41;;;;;;;2.33;1.83;;;10.80;44.70;;;;;;5087885;28;46903;-66
2023/03/07 03:40:13;;;;;;;2.00;1.50;;;10.80;44.70;;;;;;5087919;28;45313;-66
2023/03/07 03:42:41;;;;;;;1.90;1.60;;;10.80;44.70;;;;;;5087811;28;45424;-66
2023/03/07 03:45:09;;;;;;;2.57;1.80;;;10.80;44.60;;;;;;5087991;28;45396;-66
2023/03/07 03:47:35;;;;;;;2.73;1.70;;;10.80;44.60;;;;;;5087766;28;46413;-66
2023/03/07 03:50:02;;;;;;;3.13;1.60;;;10.80;44.70;;;;;;5087773;28;45339;-67
2023/03/07 03:52:29;;;;;;;2.97;1.80;;;10.80;44.70;;;;;;5087595;28;45496;-66
2023/03/07 03:54:58;;;;;;;1.80;1.70;;;10.80;44.70;;;;;;5087978;28;45459;-66
2023/03/07 03:57:24;;;;;;;2.50;2.10;;;10.80;44.70;;;;;;5087483;28;46283;-66
2023/03/07 03:59:51;;;;;;;1.87;1.70;;;10.80;44.70;;;;;;5087490;28;45250;-66
2023/03/07 04:02:18;;;;;;;2.40;1.90;;;10.70;44.60;;;;;;5087503;28;45280;-65
2023/03/07 04:04:45;;;;;;;2.40;1.80;;;10.80;44.70;;;;;;5087407;28;45525;-66
2023/03/07 04:07:12;;;;;;;2.43;2.10;;;10.70;44.60;;;;;;5087294;28;45349;-66
2023/03/07 04:09:39;;;;;;;2.30;1.70;;;10.70;44.60;;;;;;5087321;28;45230;-71
2023/03/07 04:12:08;;;;;;;2.03;1.53;;;10.70;44.60;;;;;;5087808;28;45249;-66
2023/03/07 04:14:35;;;;;;;2.07;1.70;;;10.70;44.60;;;;;;5087554;28;45376;-66
2023/03/07 04:17:01;;;;;;;2.60;1.93;;;10.70;44.60;;;;;;5087292;28;46568;-66
2023/03/07 04:19:28;;;;;;;2.13;1.80;;;10.70;44.60;;;;;;5087110;28;45551;-66
2023/03/07 04:21:55;;;;;;;2.40;1.77;;;10.70;44.60;;;;;;5087256;28;45194;-66
2023/03/07 04:24:22;;;;;;;3.70;1.97;;;10.70;44.60;;;;;;5087295;28;45110;-66
2023/03/07 04:26:49;;;;;;;1.53;1.43;;;10.70;44.60;;;;;;5086830;28;47325;-66
2023/03/07 04:29:17;;;;;;;2.50;1.57;;;10.70;44.60;;;;;;5086909;28;45392;-65
2023/03/07 04:31:44;;;;;;;4.00;2.10;;;10.70;44.60;;;;;;5087134;28;45314;-66
2023/03/07 04:34:11;;;;;;;2.23;1.90;;;10.70;44.60;;;;;;5087215;28;45238;-66
2023/03/07 04:36:38;;;;;;;2.50;1.70;;;10.70;44.60;;;;;;5086820;28;45308;-65
2023/03/07 04:39:05;;;;;;;2.13;1.80;;;10.70;45.20;;;;;;5086310;28;45488;-66
2023/03/07 04:41:32;;;;;;;1.83;1.60;;;10.70;44.60;;;;;;5086754;28;45505;-66
2023/03/07 04:43:59;;;;;;;2.10;1.47;;;10.70;44.60;;;;;;5086960;28;45482;-66
2023/03/07 04:46:28;;;;;;;2.33;1.70;;;10.70;44.60;;;;;;5086788;28;46448;-66
2023/03/07 04:48:55;;;;;;;1.73;1.50;;;10.70;45.20;;;;;;5086677;28;45401;-66
2023/03/07 04:51:22;;;;;;;1.57;1.47;;;10.70;44.60;;;;;;5086749;28;45375;-65
2023/03/07 04:53:49;;;;;;;1.30;1.10;;;10.70;44.60;;;;;;5086867;28;45371;-66
2023/03/07 04:56:15;;;;;;;2.17;1.60;;;10.70;44.60;;;;;;5086292;28;45612;-65
2023/03/07 04:58:42;;;;;;;1.73;1.60;;;10.70;44.60;;;;;;5086492;28;45176;-66
2023/03/07 05:01:09;;;;;;;1.70;1.60;;;10.60;44.60;;;;;;5086546;28;45269;-66
2023/03/07 05:03:38;;;;;;;2.47;1.80;;;10.70;44.60;;;;;;5086800;28;45305;-66
2023/03/07 05:06:06;;;;;;;2.20;2.00;;;10.60;44.50;;;;;;5086229;28;45474;-66
2023/03/07 05:08:33;;;;;;;2.47;1.67;;;10.70;44.60;;;;;;5086404;28;45131;-66
2023/03/07 05:10:59;;;;;;;1.97;1.60;;;10.70;44.60;;;;;;5086643;28;45345;-66
2023/03/07 05:13:26;;;;;;;2.13;1.50;;;10.70;44.60;;;;;;5086379;28;45388;-66
2023/03/07 05:15:53;;;;;;;1.80;1.53;;;10.60;44.50;;;;;;5085902;28;46387;-66
2023/03/07 05:18:21;;;;;;;2.23;1.50;;;10.60;44.50;;;;;;5085242;27;45211;-66
2023/03/07 05:20:50;;;;;;;2.10;1.70;;;10.60;44.50;;;;;;5086639;28;45280;-65
2023/03/07 05:23:17;;;;;;;2.27;1.90;;;10.60;44.50;;;;;;5086499;28;45459;-65
2023/03/07 05:25:45;;;;;;;2.00;1.80;;;10.60;44.50;;;;;;5085930;28;45352;-66
2023/03/07 05:28:12;;;;;;;1.63;1.53;;;10.60;44.50;;;;;;5086090;28;45246;-65
2023/03/07 05:30:39;;;;;;;2.13;1.60;;;10.60;44.60;;;;;;5086344;28;45374;-65
2023/03/07 05:33:06;;;;;;;1.57;1.43;;;10.60;44.60;;;;;;5086234;28;45387;-65
2023/03/07 05:35:33;;;;;;;1.53;1.27;;;10.60;44.50;;;;;;5085895;28;47020;-65
2023/03/07 05:38:01;;;;;;;2.53;1.67;;;10.60;44.50;;;;;;5085958;28;45415;-66
2023/03/07 05:40:28;;;;;;;2.23;1.73;;;10.60;44.50;;;;;;5085777;28;45269;-65
2023/03/07 05:42:55;;;;;;;2.13;1.80;;;10.60;44.60;;;;;;5086041;28;45428;-65
2023/03/07 05:45:22;;;;;;;2.30;1.90;;;10.60;44.50;;;;;;5085950;28;45452;-65
2023/03/07 05:47:49;;;;;;;1.50;1.40;;;10.60;44.50;;;;;;5085757;28;45344;-65
2023/03/07 05:50:17;;;;;;;2.00;1.70;;;10.60;44.50;;;;;;5085951;28;45281;-66
2023/03/07 05:52:44;;;;;;;2.30;1.50;;;10.60;44.50;;;;;;5086046;28;45155;-65
2023/03/07 05:55:15;;;;;;;2.37;1.80;;;10.60;44.50;;;;;;5085490;28;46354;-65
2023/03/07 05:57:42;;;;;;;2.83;1.57;;;10.60;44.50;;;;;;5085683;28;45271;-65
2023/03/07 06:00:10;;;;;;;1.73;1.50;;;10.60;44.50;;;;;;5085711;28;45297;-65
2023/03/07 06:02:37;;;;;;;2.60;1.73;;;10.60;44.50;;;;;;5085804;28;45304;-65
2023/03/07 06:05:04;;;;;;;2.20;1.67;;;10.60;44.50;;;;;;5085284;28;45456;-65
2023/03/07 06:07:31;;;;;;;1.67;1.30;;;10.60;44.50;;;;;;5085551;28;45306;-65
2023/03/07 06:09:58;;;;;;;1.97;1.77;;;10.60;44.50;;;;;;5085624;28;45269;-65
2023/03/07 06:12:26;;;;;;;2.90;1.70;;;10.60;44.50;;;;;;5083045;28;45355;-65
2023/03/07 06:14:53;;;;;;;2.53;1.53;;;10.60;44.50;;;;;;5085292;28;46281;-65
2023/03/07 06:17:20;;;;;;;2.13;1.53;;;10.60;44.50;;;;;;5085221;28;45475;-68
2023/03/07 06:19:46;;;;;;;1.87;1.60;;;10.60;44.50;;;;;;5085512;28;45285;-65
2023/03/07 06:22:13;;;;;;;1.60;1.40;;;10.60;44.50;;;;;;5085583;28;45239;-65
2023/03/07 06:24:40;;;;;;;1.83;1.57;;;10.60;45.00;;;;;;5085110;28;46557;-66
2023/03/07 06:27:07;;;;;;;1.80;1.60;;;10.60;44.50;;;;;;5085167;28;45436;-65
2023/03/07 06:29:35;;;;;;;1.60;1.50;;;10.60;44.40;;;;;;5087914;28;45533;-65
2023/03/07 06:32:02;;;;;;;1.60;1.50;;;10.60;44.50;;;;;;5089228;28;45430;-65
2023/03/07 06:34:29;;;;;;;2.57;1.80;;;10.60;44.40;;;;;;5088712;28;45539;-66
2023/03/07 06:36:56;;;;;;;1.77;1.40;;;10.60;44.50;;;;;;5088831;28;45275;-66
2023/03/07 06:39:22;;;;;;;1.83;1.70;;;10.60;44.40;;;;;;5089035;28;45234;-65
2023/03/07 06:41:49;;;;;;;1.63;1.50;;;10.60;44.40;;;;;;5088974;28;45407;-65
2023/03/07 06:44:16;;;;;;;1.80;1.50;;;10.60;44.40;;;;;;5088715;28;47369;-64
2023/03/07 06:46:45;;;;;;;1.43;1.33;;;10.60;44.40;;;;;;5088858;28;45246;-65
2023/03/07 06:49:12;;;;;;;1.33;1.23;;;10.60;44.40;;;;;;5088757;28;45336;-65
2023/03/07 06:51:39;;;;;;;1.97;1.50;;;10.60;44.40;;;;;;5088659;28;45355;-66
2023/03/07 06:54:06;;;;;;;1.63;1.53;;;10.60;44.40;;;;;;5088401;28;46623;-65
2023/03/07 06:56:34;;;;;;;1.83;1.70;;;10.60;44.40;;;;;;5088591;28;45319;-64
2023/03/07 06:59:00;;;;;;;1.93;1.47;;;10.60;44.40;;;;;;5088440;28;45282;-65
2023/03/07 07:01:27;;;;;;;1.60;1.50;;;10.60;44.40;;;;;;5088893;28;45575;-65
2023/03/07 07:03:56;;;;;;;1.93;1.37;;;10.60;44.40;;;;;;5088371;28;46381;-65
2023/03/07 07:06:23;;;;;;;1.87;1.37;;;10.60;44.40;;;;;;5088506;28;45348;-65
2023/03/07 07:08:50;;;;;;;3.27;1.70;;;10.60;44.30;;;;;;5088383;28;45284;-65
2023/03/07 07:11:16;;;;;;;1.60;1.50;;;10.60;44.30;;;;;;5088594;28;45854;-65
2023/03/07 07:13:44;;;;;;;1.57;1.40;;;10.60;44.30;;;;;;5088063;28;46405;-65
2023/03/07 07:16:11;;;;;;;2.07;1.70;;;10.60;44.20;;;;;;5087846;28;45442;-65
2023/03/07 07:18:38;;;;;;;1.53;1.43;;;10.60;44.20;;;;;;5088421;28;45186;-65
2023/03/07 07:21:06;;;;;;;1.53;1.43;;;10.60;44.20;;;;;;5088232;28;45420;-65
2023/03/07 07:23:33;;;;;;;1.50;1.40;;;10.60;44.20;;;;;;5087881;28;46800;-65
2023/03/07 07:26:00;;;;;;;1.83;1.70;;;10.60;44.20;;;;;;5088032;28;45383;-65
2023/03/07 07:28:27;;;;;;;1.57;1.40;;;10.60;44.20;;;;;;5085493;28;45273;-65
2023/03/07 07:30:54;;;;;;;1.47;1.37;;;10.60;44.20;;;;;;5088210;28;45410;-65
2023/03/07 07:33:21;;;;;;;2.20;1.40;;;10.60;44.20;;;;;;5087752;28;45255;-65
2023/03/07 07:35:47;;;;;;;1.87;1.50;;;10.60;44.20;;;;;;5085242;28;45279;-65
2023/03/07 07:38:16;;;;;;;1.30;1.20;;;10.60;44.20;;;;;;5088150;28;45355;-65
2023/03/07 07:40:43;;;;;;;1.40;1.30;;;10.60;44.10;;;;;;5087592;27;45372;-65
2023/03/07 07:43:13;;;;;;;1.43;1.30;;;10.60;44.10;;;;;;5087544;28;46959;-65
2023/03/07 07:45:40;;;;;;;2.03;1.30;;;10.60;44.10;;;;;;5087581;28;45397;-65
2023/03/07 07:48:06;;;;;;;2.47;1.60;;;10.60;44.10;;;;;;5087896;28;45151;-65
2023/03/07 07:50:33;;;;;;;1.70;1.60;;;10.60;44.10;;;;;;5088283;28;45162;-65
2023/03/07 07:53:00;;;;;;;2.67;1.70;;;10.60;44.10;;;;;;5087520;28;46318;-65
2023/03/07 07:55:28;;;;;;;2.50;1.30;;;10.60;44.10;;;;;;5087781;28;45284;-66
2023/03/07 07:57:55;;;;;;;2.33;1.77;;;10.60;44.00;;;;;;5087797;28;45357;-65
2023/03/07 08:00:22;;;;;;;1.33;1.23;;;10.60;44.10;;;;;;5087614;28;45440;-65
2023/03/07 08:02:49;;;;;;;2.33;1.60;;;10.60;44.10;;;;;;5087466;28;45255;-65
2023/03/07 08:05:17;;;;;;;1.40;1.30;;;10.60;44.00;;;;;;5087540;28;45281;-65
2023/03/07 08:07:44;;;;;;;1.47;1.33;;;10.60;44.00;;;;;;5087946;28;45332;-65
2023/03/07 08:10:14;;;;;;;2.80;1.60;;;10.60;44.00;;;;;;5087918;28;45229;-65
2023/03/07 08:12:42;;;;;;;2.10;1.50;;;10.60;44.00;;;;;;5087391;28;45338;-65
2023/03/07 08:15:10;;;;;;;2.90;1.47;;;10.60;44.00;;;;;;5087036;28;45522;-65
2023/03/07 08:17:37;;;;;;;3.87;1.50;;;10.60;43.90;;;;;;5087682;28;45388;-65
2023/03/07 08:20:08;;;;;;;1.80;1.50;;;10.60;43.90;;;;;;5087764;28;45182;-65
2023/03/07 08:22:34;;;;;;;4.40;1.53;;;10.70;45.10;;;;;;5087254;28;46885;-69
2023/03/07 08:25:01;;;;;;;1.93;1.23;;;10.70;45.30;;;;;;5087604;28;45257;-68
2023/03/07 08:27:28;;;;;;;2.40;1.43;;;10.70;45.30;;;;;;5087620;28;45395;-65
2023/03/07 08:29:56;;;;;;;2.00;1.50;;;10.80;45.20;;;;;;5088078;28;45166;-65
2023/03/07 08:32:23;;;;;;;2.33;1.73;;;10.80;45.10;;;;;;5087767;28;46638;-65
2023/03/07 08:34:50;;;;;;;2.03;1.47;;;10.90;44.60;;;;;;5087827;28;45319;-67
2023/03/07 08:37:17;;;;;;;2.17;1.77;;;10.90;44.90;;;;;;5085741;28;45396;-63
2023/03/07 08:39:44;;;;;;;2.50;1.63;;;11.00;44.60;;;;;;5070012;28;45216;-68
2023/03/07 08:42:11;;;;;;;3.23;1.73;;;11.00;44.70;;;;;;5077872;28;47429;-66
2023/03/07 08:44:37;;;;;;;4.30;2.10;;;11.10;44.80;;;;;;5084647;28;45614;-67
2023/03/07 08:47:06;;;;;;;4.33;1.80;;;11.10;44.60;;;;;;5085613;28;45429;-64
2023/03/07 08:49:33;;;;;;;6.20;2.20;;;11.10;44.90;;;;;;5082643;27;45708;-68
2023/03/07 08:52:00;;;;;;;3.93;2.50;;;11.20;45.20;;;;;;5085587;28;45324;-67
2023/03/07 08:54:28;;;;;;;4.43;2.40;;;11.20;45.10;;;;;;5087046;28;45202;-65
2023/03/07 08:56:54;;;;;;;2.80;2.40;;;11.30;45.10;;;;;;5087071;28;45448;-66
2023/03/07 08:59:21;;;;;;;2.57;2.13;;;11.30;44.80;;;;;;5087229;28;45393;-66
2023/03/07 09:01:48;;;;;;;2.87;2.30;;;11.40;44.60;;;;;;5086793;28;45376;-67
2023/03/07 09:04:16;;;;;;;5.37;2.30;;;11.40;44.40;;;;;;5086713;28;45252;-66
2023/03/07 09:06:43;;;;;;;3.83;2.10;;;11.40;44.30;;;;;;5086690;28;45243;-65
2023/03/07 09:09:10;;;;;;;3.30;2.20;;;11.40;44.20;;;;;;5086842;28;45364;-65
2023/03/07 09:11:37;;;;;;;3.67;2.27;;;11.40;44.10;;;;;;5086559;28;47320;-71
2023/03/07 09:14:04;;;;;;;3.83;2.27;;;11.40;44.10;;;;;;5086375;28;45431;-65
2023/03/07 09:16:31;;;;;;;4.87;2.03;;;11.40;44.00;;;;;;5085815;28;45336;-65
2023/03/07 09:18:57;;;;;;;2.30;2.10;;;11.40;43.90;;;;;;5087031;28;45356;-64
2023/03/07 09:21:26;;;;;;;3.80;2.40;;;11.40;43.90;;;;;;5086477;28;45390;-64
2023/03/07 09:23:52;;;;;;;2.97;2.00;;;11.40;43.90;;;;;;5082295;27;45565;-64
2023/03/07 09:26:19;;;;;;;3.63;2.60;;;11.40;43.90;;;;;;5085574;28;45258;-66
2023/03/07 09:28:46;;;;;;;2.73;2.00;;;11.40;43.90;;;;;;5084587;28;45463;-65
2023/03/07 09:31:13;;;;;;;2.30;2.10;;;11.40;43.80;;;;;;5069073;28;47592;-65
2023/03/07 09:33:40;;;;;;;3.03;1.87;;;11.40;43.80;;;;;;5082158;28;45290;-66
2023/03/07 09:36:08;;;;;;;2.93;2.20;;;11.40;43.70;;;;;;5086496;28;45311;-65
2023/03/07 09:38:37;;;;;;;2.87;2.23;;;11.40;43.70;;;;;;5086304;28;45136;-65
2023/03/07 09:41:06;;;;;;;3.30;2.00;;;11.40;43.70;;;;;;5085662;28;46833;-65
2023/03/07 09:43:37;;;;;;;3.60;2.03;;;11.40;43.60;;;;;;5084972;28;45253;-65
2023/03/07 09:46:06;;;;;;;2.90;2.03;;;11.40;43.60;;;;;;5070857;28;45717;-65
2023/03/07 09:49:01;;;;;;;3.63;2.30;;;11.40;43.60;;;;;;5065819;28;45408;-65
2023/03/07 09:51:35;;;;;;;2.13;1.90;;;11.40;43.60;;;;;;5067278;28;46470;-65
2023/03/07 09:54:05;;;;;;;3.40;2.30;;;11.50;43.60;;;;;;5077521;28;45399;-64
2023/03/07 09:56:34;;;;;;;3.60;2.10;;;11.50;43.60;;;;;;5084549;28;45245;-64
2023/03/07 09:59:03;;;;;;;1.73;1.63;;;11.50;43.60;;;;;;5086154;28;45448;-65
2023/03/07 10:01:32;;;;;;;3.30;2.03;;;11.50;43.50;;;;;;5085540;28;46626;-66
2023/03/07 10:04:00;;;;;;;3.33;1.80;;;11.50;43.50;;;;;;5085407;27;45311;-65
2023/03/07 10:06:30;;;;;;;3.17;2.10;;;11.50;43.50;;;;;;5085741;28;45459;-64
2023/03/07 10:08:57;;;;;;;4.60;2.23;;;11.50;43.40;;;;;;5084139;28;45164;-65
2023/03/07 10:11:29;;;;;;;3.47;1.67;;;11.50;43.40;;;;;;5083924;27;45434;-65
2023/03/07 10:14:10;;;;;;;3.13;2.00;;;11.50;43.40;;;;;;5076267;28;45258;-64
2023/03/07 10:16:41;;;;;;;3.07;2.10;;;11.50;43.30;;;;;;5065243;28;45305;-64
2023/03/07 10:19:12;;;;;;;2.00;1.80;;;11.60;43.30;;;;;;5065766;28;45205;-65
2023/03/07 10:21:42;;;;;;;3.07;2.07;;;11.60;43.30;;;;;;5064978;28;46655;-65
2023/03/07 10:24:36;;;;;;;3.17;1.83;;;11.60;43.30;;;;;;5062765;28;45257;-65
2023/03/07 10:27:06;;;;;;;2.53;1.90;;;11.70;43.30;;;;;;5065581;28;45262;-65
2023/03/07 10:29:37;;;;;;;1.87;1.57;;;11.60;43.20;;;;;;5079919;28;45408;-65
2023/03/07 10:32:14;;;;;;;1.83;1.70;;;11.60;43.20;;;;;;5079904;28;45427;-65
2023/03/07 10:34:40;;;;;;;2.60;2.00;;;11.70;43.20;;;;;;5074477;28;45498;-65
2023/03/07 10:37:12;;;;;;;3.27;2.00;;;11.70;43.10;;;;;;5081787;28;45472;-65
2023/03/07 10:39:42;;;;;;;3.07;2.03;;;11.70;43.10;;;;;;5081600;27;45645;-65
2023/03/07 10:42:10;;;;;;;2.93;2.03;;;11.70;43.10;;;;;;5083629;28;46497;-64
2023/03/07 10:44:37;;;;;;;2.10;1.67;;;11.70;43.20;;;;;;5080773;27;45446;-65
2023/03/07 10:47:04;;;;;;;2.27;2.07;;;11.70;43.20;;;;;;5066241;28;45325;-65
2023/03/07 10:49:32;;;;;;;1.90;1.67;;;11.70;43.20;;;;;;5084077;28;45441;-65
2023/03/07 10:52:01;;;;;;;2.87;1.67;;;11.70;43.20;;;;;;5085064;28;45373;-65
2023/03/07 10:54:29;;;;;;;1.90;1.70;;;11.70;43.20;;;;;;5085238;28;45311;-65
2023/03/07 10:57:07;;;;;;;4.23;1.80;;;11.70;43.20;;;;;;5083402;28;45289;-65
2023/03/07 10:59:35;;;;;;;4.33;2.00;;;11.70;43.10;;;;;;5083616;28;45431;-65
2023/03/07 11:02:04;;;;;;;2.53;1.80;;;11.70;43.10;;;;;;5084860;28;46388;-65
2023/03/07 11:04:43;;;;;;;2.43;1.47;;;11.70;43.20;;;;;;5083946;28;45391;-65
2023/03/07 11:07:27;;;;;;;1.37;1.23;;;11.70;43.20;;;;;;5085265;28;45364;-65
2023/03/07 11:09:54;;;;;;;1.73;1.63;;;11.70;43.20;;;;;;5083759;28;45490;-65
2023/03/07 11:12:21;;;;;;;2.00;1.80;;;11.70;43.20;;;;;;5077426;28;45312;-65
2023/03/07 11:14:51;;;;;;;3.90;1.50;;;11.70;43.20;;;;;;5084581;27;45664;-66
2023/03/07 11:17:19;;;;;;;1.77;1.67;;;11.70;43.20;;;;;;5086654;28;45532;-66
2023/03/07 11:19:46;;;;;;;2.20;1.70;;;11.70;43.20;;;;;;5086899;28;45124;-65
2023/03/07 11:22:32;;;;;;;1.73;1.30;;;11.70;43.10;;;;;;5088052;28;45478;-65
2023/03/07 11:25:01;;;;;;;2.57;1.70;;;11.80;43.20;;;;;;5085587;28;45665;-65
2023/03/07 11:27:34;;;;;;;2.90;1.40;;;11.80;43.20;;;;;;5086413;28;45425;-66
2023/03/07 11:30:19;;;;;;;2.10;1.63;;;11.80;43.10;;;;;;5088598;28;45404;-66
2023/03/07 11:32:51;;;;;;;1.83;1.67;;;11.90;43.10;;;;;;5087830;28;45502;-65
2023/03/07 11:35:20;;;;;;;2.03;1.70;;;11.90;43.00;;;;;;5087169;28;45297;-66
2023/03/07 11:37:50;;;;;;;1.60;1.50;;;11.90;43.00;;;;;;5088360;28;45359;-66
2023/03/07 11:40:26;;;;;;;2.60;1.50;;;11.90;42.90;;;;;;5084968;28;45527;-65
2023/03/07 11:43:00;;;;;;;1.97;1.63;;;11.90;42.90;;;;;;5087642;28;45283;-66
2023/03/07 11:45:33;;;;;;;1.73;1.47;;;11.90;42.90;;;;;;5084206;28;45415;-66
2023/03/07 11:48:04;;;;;;;3.77;1.60;;;12.00;42.80;;;;;;5086916;28;45537;-67
2023/03/07 11:50:31;;;;;;;1.70;1.60;;;12.00;42.80;;;;;;5084255;28;45477;-66
2023/03/07 11:53:16;;;;;;;1.50;1.33;;;12.10;42.80;;;;;;5086169;28;45402;-66
2023/03/07 11:55:49;;;;;;;2.97;1.40;;;12.10;42.60;;;;;;5084189;28;45662;-66
2023/03/07 11:58:33;;;;;;;1.60;1.40;;;12.30;42.50;;;;;;5087153;28;45407;-66
2023/03/07 12:01:12;;;;;;;2.80;1.93;;;12.50;42.10;;;;;;5087922;28;45210;-65
2023/03/07 12:03:57;;;;;;;2.17;1.57;;;12.50;41.90;;;;;;5086546;28;45474;-65
2023/03/07 12:06:27;;;;;;;2.83;1.40;;;12.60;41.80;;;;;;5086488;28;45348;-65
2023/03/07 12:09:03;;;;;;;1.90;1.60;;;12.70;41.70;;;;;;5087781;28;45261;-65
2023/03/07 12:11:46;;;;;;;1.73;1.43;;;12.80;41.50;;;;;;5087843;28;45399;-65
2023/03/07 12:14:18;;;;;;;1.97;1.30;;;12.80;41.40;;;;;;5086633;28;46386;-65
2023/03/07 12:16:51;;;;;;;1.67;1.30;;;12.80;41.60;;;;;;5084273;28;45459;-65
2023/03/07 12:19:31;;;;;;;2.37;1.70;;;12.80;41.50;;;;;;5084092;28;45481;-65
2023/03/07 12:22:34;;;;;;;1.67;1.20;;;12.80;41.50;;;;;;5087378;28;45228;-65
2023/03/07 12:25:09;;;;;;;3.80;1.50;;;12.80;41.60;;;;;;5046979;28;47308;-65
2023/03/07 12:27:38;;;;;;;1.60;1.43;;;13.10;41.30;;;;;;5087108;28;46373;-65
2023/03/07 12:30:06;;;;;;;2.00;1.37;;;13.30;41.00;;;;;;5087256;28;45317;-65
2023/03/07 12:32:34;;;;;;;2.10;1.57;;;13.40;40.80;;;;;;5086381;28;45497;-65
2023/03/07 12:35:05;;;;;;;1.80;1.43;;;13.40;40.60;;;;;;5087099;28;47623;-65
2023/03/07 12:37:34;;;;;;;2.10;1.70;;;13.60;40.50;;;;;;5084493;28;45538;-65
2023/03/07 12:40:02;;;;;;;2.20;1.40;;;13.60;40.40;;;;;;5086945;28;45333;-65
2023/03/07 12:42:32;;;;;;;1.60;1.43;;;13.70;40.30;;;;;;5087053;28;45326;-65
2023/03/07 12:44:59;;;;;;;1.23;1.20;;;13.70;40.20;;;;;;5084930;28;46408;-65
2023/03/07 12:47:29;;;;;;;1.90;1.43;;;13.80;40.00;;;;;;5083902;28;45445;-65
2023/03/07 12:50:00;;;;;;;3.10;1.37;;;13.90;40.00;;;;;;5071325;28;45380;-66
2023/03/07 12:52:39;;;;;;;1.63;1.47;;;13.90;40.00;;;;;;5078295;28;45213;-65
2023/03/07 12:55:10;;;;;;;3.00;1.77;;;13.90;40.10;;;;;;5077531;28;46449;-65